Burlington, North Dakota
Current Conditions -  °F | °C
As of 10:54 PM on Tuesday 25 Nov 2014 (Local Time) from KMOT Reporting Station
Haze Haze  
Wind Chill: -10°   Ceiling: 2200
Heat Index:   Visibility: 6mi
Dew Point:   Wind: 14mph
Humidity: 80%   Direction: 340°NNW
Pressure: 30.16"   Gusts: NA
Location:  48.28°N, 101.43°W
Report Text: KMOT 260454Z 34012KT 6SM HZ OVC022 M14/M17 A3016 RMK AO2 SLP246 T11391167
Loading
Personal Weather Stations






























Interactive Weather Map New forecast layout! Learn more

10-Day Weather Forecast

Advertisements
Track Severe Weather on mobile